Time;durP1;ratioP1;P1;durP2;ratioP2;P2;SDS_P1;SDS_P2;PMS_P1;PMS_P2;Temp;Humidity;BMP_temperature;BMP_pressure;BME280_temperature;BME280_humidity;BME280_pressure;Samples;Min_cycle;Max_cycle;Signal;HPM_P1;HPM_P2
2021/01/19 00:00:48;;;;;;;15.90;9.80;;;7.30;98.60;;;;;;5074145;28;20072;-72
2021/01/19 00:03:14;;;;;;;22.55;11.07;;;7.30;98.70;;;;;;5076782;28;20043;-71
2021/01/19 00:05:42;;;;;;;30.73;11.48;;;7.30;98.70;;;;;;5075159;28;20043;-72
2021/01/19 00:08:08;;;;;;;23.92;10.77;;;7.20;98.70;;;;;;5073600;28;20028;-72
2021/01/19 00:10:33;;;;;;;23.08;11.43;;;7.20;98.90;;;;;;5075047;28;20032;-71
2021/01/19 00:12:59;;;;;;;22.45;11.68;;;7.20;98.80;;;;;;5069086;28;20423;-72
2021/01/19 00:15:25;;;;;;;19.05;11.15;;;7.10;98.90;;;;;;5056459;28;20017;-72
2021/01/19 00:17:50;;;;;;;20.80;11.80;;;7.20;98.90;;;;;;5055056;28;20090;-72
2021/01/19 00:20:16;;;;;;;22.52;11.32;;;7.20;98.90;;;;;;5055108;28;20041;-70
2021/01/19 00:22:42;;;;;;;24.50;11.73;;;7.30;99.10;;;;;;5054602;28;20333;-72
2021/01/19 00:25:08;;;;;;;18.95;12.25;;;7.20;99.20;;;;;;5054698;28;20053;-71
2021/01/19 00:27:33;;;;;;;19.63;13.02;;;7.20;99.30;;;;;;5054425;28;20737;-72
2021/01/19 00:29:59;;;;;;;20.85;12.02;;;7.20;99.60;;;;;;5056198;28;20336;-73
2021/01/19 00:32:25;;;;;;;19.92;12.43;;;7.10;99.80;;;;;;5054467;28;20057;-73
2021/01/19 00:34:51;;;;;;;29.80;13.55;;;7.20;99.80;;;;;;5053536;28;20403;-72
2021/01/19 00:37:17;;;;;;;21.75;13.15;;;7.20;99.80;;;;;;5060439;28;20055;-73
2021/01/19 00:39:42;;;;;;;20.63;13.07;;;7.20;99.70;;;;;;5074518;28;20051;-71
2021/01/19 00:42:08;;;;;;;22.55;13.15;;;7.20;99.80;;;;;;5076009;28;20362;-71
2021/01/19 00:44:34;;;;;;;23.23;13.10;;;7.30;99.70;;;;;;5073878;28;20111;-72
2021/01/19 00:46:59;;;;;;;21.10;13.43;;;7.40;99.70;;;;;;5074394;28;20032;-72
2021/01/19 00:49:25;;;;;;;22.67;12.75;;;7.40;99.50;;;;;;5073706;28;20454;-72
2021/01/19 00:51:51;;;;;;;25.02;13.38;;;7.30;99.40;;;;;;5074128;28;20033;-73
2021/01/19 00:54:16;;;;;;;27.98;15.90;;;7.40;99.40;;;;;;5075893;28;20052;-72
2021/01/19 00:56:43;;;;;;;27.27;17.02;;;7.30;99.40;;;;;;5070027;28;20036;-71
2021/01/19 00:59:09;;;;;;;34.08;16.67;;;7.30;99.30;;;;;;5073625;28;20498;-72
2021/01/19 01:01:43;;;;;;;24.10;14.57;;;7.30;99.30;;;;;;5071642;28;20021;-71
2021/01/19 01:04:09;;;;;;;27.98;14.50;;;7.30;99.40;;;;;;5073215;28;20068;-72
2021/01/19 01:06:35;;;;;;;28.45;15.20;;;7.40;99.20;;;;;;5074000;28;20033;-71
2021/01/19 01:09:00;;;;;;;23.73;13.77;;;7.30;99.30;;;;;;5075614;28;20054;-71
2021/01/19 01:11:26;;;;;;;24.40;13.27;;;7.30;99.20;;;;;;5073905;28;20052;-71
2021/01/19 01:13:52;;;;;;;22.83;13.60;;;7.30;99.30;;;;;;5072662;28;20041;-71
2021/01/19 01:16:17;;;;;;;25.30;13.00;;;7.20;99.20;;;;;;5073920;28;20111;-72
2021/01/19 01:18:43;;;;;;;25.73;13.20;;;7.20;99.10;;;;;;5072487;28;20063;-71
2021/01/19 01:21:12;;;;;;;25.13;13.05;;;7.20;99.20;;;;;;5075352;28;20032;-71
2021/01/19 01:23:38;;;;;;;24.20;12.98;;;7.20;99.20;;;;;;5073895;28;20035;-71
2021/01/19 01:26:04;;;;;;;24.02;13.25;;;7.20;99.10;;;;;;5072653;28;20297;-71
2021/01/19 01:28:30;;;;;;;22.98;12.82;;;7.20;99.20;;;;;;5073587;28;20040;-72
2021/01/19 01:30:56;;;;;;;20.15;12.65;;;7.20;99.20;;;;;;5073418;28;20055;-71
2021/01/19 01:33:22;;;;;;;24.10;13.55;;;7.30;99.20;;;;;;5074999;28;20120;-71
2021/01/19 01:35:48;;;;;;;26.42;12.93;;;7.20;99.10;;;;;;5072564;28;20513;-70
2021/01/19 01:38:13;;;;;;;18.92;11.63;;;7.30;99.00;;;;;;5058492;28;20053;-72
2021/01/19 01:40:39;;;;;;;21.08;12.27;;;7.30;98.90;;;;;;5062580;28;20040;-72
2021/01/19 01:43:13;;;;;;;24.02;12.20;;;7.20;99.00;;;;;;5073246;28;20036;-72
2021/01/19 01:45:39;;;;;;;22.55;12.32;;;7.20;98.90;;;;;;5073088;28;20034;-72
2021/01/19 01:48:08;;;;;;;21.17;12.55;;;7.20;98.90;;;;;;5074882;28;20151;-71
2021/01/19 01:50:33;;;;;;;21.25;12.15;;;7.30;98.90;;;;;;5073297;28;20066;-72
2021/01/19 01:52:59;;;;;;;22.10;12.02;;;7.30;98.80;;;;;;5073287;28;20040;-72
2021/01/19 01:55:25;;;;;;;19.40;11.65;;;7.30;98.80;;;;;;5073315;28;20071;-71
2021/01/19 01:57:51;;;;;;;24.83;11.57;;;7.40;98.70;;;;;;5071590;28;20032;-71
2021/01/19 02:00:17;;;;;;;19.35;11.48;;;7.40;98.70;;;;;;5074728;28;20108;-72
2021/01/19 02:02:53;;;;;;;19.05;11.45;;;7.30;98.60;;;;;;5071964;28;20135;-72
2021/01/19 02:05:20;;;;;;;20.65;11.73;;;7.30;98.80;;;;;;5073117;28;20045;-71
2021/01/19 02:08:10;;;;;;;17.92;10.93;;;7.30;98.80;;;;;;5073065;28;20052;-70
2021/01/19 02:10:38;;;;;;;19.23;10.98;;;7.40;98.70;;;;;;5071917;28;20048;-71
2021/01/19 02:13:13;;;;;;;22.65;10.30;;;7.20;98.70;;;;;;5071522;28;20051;-70
2021/01/19 02:15:47;;;;;;;18.95;11.20;;;7.20;98.80;;;;;;5072783;28;20028;-71
2021/01/19 02:18:53;;;;;;;24.15;10.70;;;7.30;99.10;;;;;;5074384;28;20071;-72
2021/01/19 02:21:46;;;;;;;20.80;10.63;;;7.40;98.80;;;;;;5071610;28;20439;-73
2021/01/19 02:24:22;;;;;;;19.25;10.88;;;7.40;98.70;;;;;;5073148;28;20040;-72
2021/01/19 02:27:14;;;;;;;19.95;11.35;;;7.30;98.60;;;;;;5072798;28;20111;-70
2021/01/19 02:30:01;;;;;;;19.60;10.90;;;7.40;98.70;;;;;;5072698;28;20040;-71
2021/01/19 02:32:41;;;;;;;21.92;12.70;;;7.40;98.70;;;;;;5072292;28;20051;-71
2021/01/19 02:35:15;;;;;;;18.02;10.55;;;7.30;98.70;;;;;;5072334;28;20189;-71
2021/01/19 02:38:02;;;;;;;20.77;10.90;;;7.30;98.70;;;;;;5072177;28;20043;-71
2021/01/19 02:40:28;;;;;;;18.67;11.15;;;7.30;98.80;;;;;;5072135;28;20134;-71
2021/01/19 02:43:20;;;;;;;18.83;10.75;;;7.30;98.70;;;;;;5072065;28;20051;-71
2021/01/19 02:45:47;;;;;;;17.80;10.52;;;7.20;98.80;;;;;;5071119;28;20060;-71
2021/01/19 02:48:13;;;;;;;16.60;10.33;;;7.20;98.90;;;;;;5073702;28;20020;-71
2021/01/19 02:50:39;;;;;;;17.48;10.10;;;7.30;99.00;;;;;;5071896;28;20032;-70
2021/01/19 02:53:06;;;;;;;21.33;10.70;;;7.30;98.90;;;;;;5072089;28;20049;-71
2021/01/19 02:55:32;;;;;;;18.90;9.45;;;7.30;98.80;;;;;;5072125;28;20119;-71
2021/01/19 02:58:05;;;;;;;17.88;9.00;;;7.40;98.80;;;;;;5072165;28;20139;-71
2021/01/19 03:01:04;;;;;;;14.50;8.48;;;7.30;98.60;;;;;;5072085;28;20039;-72
2021/01/19 03:03:37;;;;;;;14.75;7.97;;;7.30;98.60;;;;;;5070429;28;20051;-72
2021/01/19 03:06:13;;;;;;;15.55;9.00;;;7.30;98.70;;;;;;5073489;28;20028;-71
2021/01/19 03:08:41;;;;;;;12.55;8.25;;;7.30;98.70;;;;;;5071929;28;20071;-71
2021/01/19 03:11:10;;;;;;;11.20;7.10;;;7.30;98.60;;;;;;5071804;28;20060;-72
2021/01/19 03:13:36;;;;;;;15.50;7.88;;;7.30;98.50;;;;;;5071904;28;20112;-71
2021/01/19 03:16:07;;;;;;;17.10;8.20;;;7.20;98.60;;;;;;5071739;28;20110;-70
2021/01/19 03:18:33;;;;;;;14.18;7.82;;;7.30;98.60;;;;;;5071523;28;20044;-70
2021/01/19 03:21:01;;;;;;;13.68;7.75;;;7.30;98.40;;;;;;5073318;28;20032;-72
2021/01/19 03:23:26;;;;;;;10.90;7.32;;;7.40;98.70;;;;;;5070629;28;20036;-71
2021/01/19 03:25:52;;;;;;;12.45;6.35;;;7.40;98.40;;;;;;5071774;28;20041;-71
2021/01/19 03:28:18;;;;;;;13.93;7.35;;;7.40;98.30;;;;;;5070467;28;20031;-71
2021/01/19 03:30:43;;;;;;;10.07;6.40;;;7.40;98.40;;;;;;5071791;28;20033;-71
2021/01/19 03:33:09;;;;;;;10.80;6.85;;;7.50;98.30;;;;;;5073174;28;20036;-72
2021/01/19 03:35:39;;;;;;;11.43;6.63;;;7.40;98.30;;;;;;5071682;28;20029;-71
2021/01/19 03:38:07;;;;;;;15.35;6.72;;;7.40;98.30;;;;;;5071436;28;20056;-71
2021/01/19 03:40:33;;;;;;;14.93;6.95;;;7.50;98.30;;;;;;5071729;28;20462;-71
2021/01/19 03:42:59;;;;;;;16.42;6.60;;;7.50;98.30;;;;;;5071455;28;20378;-71
2021/01/19 03:45:27;;;;;;;12.93;6.30;;;7.40;98.30;;;;;;5071952;28;20025;-72
2021/01/19 03:47:53;;;;;;;16.92;7.15;;;7.40;98.40;;;;;;5072557;28;20024;-72
2021/01/19 03:50:19;;;;;;;9.48;6.63;;;7.40;98.50;;;;;;5071411;28;20516;-72
2021/01/19 03:52:44;;;;;;;14.30;7.35;;;7.50;98.50;;;;;;5071279;28;20458;-72
2021/01/19 03:55:10;;;;;;;14.25;6.00;;;7.50;98.40;;;;;;5070870;28;20501;-70
2021/01/19 03:57:36;;;;;;;10.18;7.25;;;7.50;98.40;;;;;;5071364;28;20351;-72
2021/01/19 04:00:07;;;;;;;13.32;6.20;;;7.40;98.40;;;;;;5072088;28;20526;-72
2021/01/19 04:02:33;;;;;;;14.55;6.53;;;7.50;98.40;;;;;;5071997;28;20067;-72
2021/01/19 04:04:58;;;;;;;10.55;6.57;;;7.40;98.40;;;;;;5071353;28;20484;-72
2021/01/19 04:07:25;;;;;;;13.80;7.05;;;7.50;98.50;;;;;;5071472;28;20180;-71
2021/01/19 04:09:51;;;;;;;15.93;7.47;;;7.50;98.50;;;;;;5071593;28;20020;-71
2021/01/19 04:12:16;;;;;;;13.98;7.28;;;7.40;98.50;;;;;;5072966;28;20415;-71
2021/01/19 04:14:42;;;;;;;14.23;6.80;;;7.40;98.70;;;;;;5071519;28;20063;-70
2021/01/19 04:17:08;;;;;;;11.43;6.85;;;7.40;98.60;;;;;;5069808;28;20049;-71
2021/01/19 04:19:34;;;;;;;11.68;7.57;;;7.50;98.70;;;;;;5070020;28;20310;-71
2021/01/19 04:21:59;;;;;;;14.23;7.60;;;7.40;98.80;;;;;;5071154;28;20039;-72
2021/01/19 04:24:25;;;;;;;16.10;8.15;;;7.40;99.00;;;;;;5071542;28;20123;-70
2021/01/19 04:26:50;;;;;;;14.18;8.77;;;7.30;99.10;;;;;;5071411;28;20056;-72
2021/01/19 04:29:16;;;;;;;13.68;8.48;;;7.30;99.30;;;;;;5071221;28;20101;-73
2021/01/19 04:31:42;;;;;;;23.63;8.93;;;7.20;99.40;;;;;;5071525;28;20358;-72
2021/01/19 04:34:07;;;;;;;14.93;8.57;;;7.30;99.60;;;;;;5074237;28;20044;-72
2021/01/19 04:36:33;;;;;;;17.50;9.05;;;7.20;99.70;;;;;;5073530;28;20458;-70
2021/01/19 04:38:59;;;;;;;11.70;7.78;;;7.30;99.70;;;;;;5076283;28;20048;-71
2021/01/19 04:41:27;;;;;;;15.27;8.13;;;7.30;99.70;;;;;;5074583;28;20040;-71
2021/01/19 04:43:54;;;;;;;16.58;9.20;;;7.30;99.70;;;;;;5073478;28;20028;-71
2021/01/19 04:46:22;;;;;;;15.10;7.40;;;7.30;99.70;;;;;;5073432;28;20039;-71
2021/01/19 04:48:48;;;;;;;9.75;6.38;;;7.30;99.70;;;;;;5074344;28;20047;-70
2021/01/19 04:51:21;;;;;;;14.85;7.20;;;7.20;99.80;;;;;;5076041;28;20100;-71
2021/01/19 04:53:56;;;;;;;11.50;6.05;;;7.20;99.70;;;;;;5073368;28;20039;-71
2021/01/19 04:56:26;;;;;;;10.63;6.13;;;7.20;99.70;;;;;;5074031;28;20041;-72
2021/01/19 04:58:54;;;;;;;10.88;5.80;;;7.20;99.70;;;;;;5074275;28;20029;-72
2021/01/19 05:01:35;;;;;;;;;;;7.20;99.50;;;;;;5073703;28;20036;-71
2021/01/19 05:04:25;;;;;;;12.07;4.57;;;7.10;99.50;;;;;;5074166;28;19943;-71
2021/01/19 05:07:25;;;;;;;9.68;4.00;;;7.10;99.40;;;;;;5073126;28;20024;-72
2021/01/19 05:10:11;;;;;;;11.75;4.68;;;7.20;99.30;;;;;;5074140;28;20071;-72
2021/01/19 05:12:44;;;;;;;9.23;3.92;;;7.20;99.20;;;;;;5074182;28;20134;-72
2021/01/19 05:15:14;;;;;;;7.03;3.63;;;7.20;99.10;;;;;;5074677;28;20047;-72
2021/01/19 05:17:41;;;;;;;6.75;3.63;;;7.20;98.90;;;;;;5073816;28;20044;-72
2021/01/19 05:20:08;;;;;;;7.30;3.30;;;7.10;99.00;;;;;;5060041;28;20126;-72
2021/01/19 05:22:34;;;;;;;4.55;3.20;;;7.20;98.90;;;;;;5053570;28;20033;-72
2021/01/19 05:25:00;;;;;;;6.47;3.33;;;7.20;98.90;;;;;;5053944;28;20029;-71
2021/01/19 05:27:26;;;;;;;9.15;3.20;;;7.20;98.80;;;;;;5053838;28;20025;-72
2021/01/19 05:29:59;;;;;;;7.82;3.67;;;7.10;98.70;;;;;;5075480;28;20040;-71
2021/01/19 05:32:38;;;;;;;9.35;3.30;;;7.20;98.80;;;;;;5073380;28;20132;-70
2021/01/19 05:35:18;;;;;;;6.72;2.65;;;7.20;98.70;;;;;;5073729;28;20040;-70
2021/01/19 05:37:55;;;;;;;12.82;2.80;;;7.20;98.60;;;;;;5073416;28;20115;-70
2021/01/19 05:40:21;;;;;;;9.05;2.65;;;7.10;98.70;;;;;;5073360;28;20072;-72
2021/01/19 05:42:47;;;;;;;6.25;2.67;;;7.10;98.60;;;;;;5073206;28;20105;-72
2021/01/19 05:45:13;;;;;;;5.70;2.85;;;7.20;98.60;;;;;;5073717;28;20039;-70
2021/01/19 05:47:39;;;;;;;10.60;2.97;;;7.10;98.70;;;;;;5073099;28;20036;-72
2021/01/19 05:50:09;;;;;;;10.40;2.50;;;7.20;98.70;;;;;;5073197;28;20064;-72
2021/01/19 05:52:36;;;;;;;6.60;2.55;;;7.10;98.60;;;;;;5073108;28;20365;-73
2021/01/19 05:55:02;;;;;;;5.30;2.80;;;7.10;98.80;;;;;;5073263;28;20025;-72
2021/01/19 05:57:28;;;;;;;12.10;3.10;;;7.10;98.80;;;;;;5072792;28;20024;-71
2021/01/19 06:00:04;;;;;;;8.82;2.75;;;7.00;98.80;;;;;;5074761;28;20443;-74
2021/01/19 06:02:40;;;;;;;7.47;2.60;;;7.00;98.70;;;;;;5073002;28;20113;-71
2021/01/19 06:05:13;;;;;;;6.50;2.20;;;7.00;98.70;;;;;;5072954;28;20025;-72
2021/01/19 06:07:40;;;;;;;6.00;2.47;;;7.00;98.70;;;;;;5072586;28;20036;-72
2021/01/19 06:10:17;;;;;;;7.10;2.40;;;7.00;98.60;;;;;;5071397;28;20024;-72
2021/01/19 06:12:43;;;;;;;4.55;2.25;;;7.00;98.50;;;;;;5072899;28;20016;-71
2021/01/19 06:15:09;;;;;;;5.88;2.10;;;7.00;98.60;;;;;;5074284;28;20388;-72
2021/01/19 06:17:36;;;;;;;7.65;2.08;;;7.00;98.60;;;;;;5071729;28;20527;-71
2021/01/19 06:20:06;;;;;;;3.40;1.92;;;6.90;98.70;;;;;;5071453;28;20029;-72
2021/01/19 06:22:33;;;;;;;4.13;2.13;;;6.90;98.60;;;;;;5071278;28;20425;-73
2021/01/19 06:25:01;;;;;;;8.55;2.10;;;6.90;98.70;;;;;;5072397;27;20040;-72
2021/01/19 06:27:28;;;;;;;4.75;2.03;;;6.90;98.80;;;;;;5072478;28;20046;-72
2021/01/19 06:29:59;;;;;;;3.78;1.88;;;6.80;98.80;;;;;;5074049;28;20051;-72
2021/01/19 06:32:52;;;;;;;9.10;2.45;;;6.80;98.80;;;;;;5071391;28;20477;-72
2021/01/19 06:35:23;;;;;;;3.83;1.63;;;6.80;98.80;;;;;;5069111;28;20047;-72
2021/01/19 06:37:53;;;;;;;3.08;1.92;;;6.80;98.80;;;;;;5072217;28;20147;-71
2021/01/19 06:40:21;;;;;;;3.97;1.83;;;6.80;98.70;;;;;;5071256;28;20059;-72
2021/01/19 06:43:02;;;;;;;4.80;2.10;;;6.80;98.80;;;;;;5072042;28;20056;-72
2021/01/19 06:45:28;;;;;;;4.53;2.20;;;6.80;98.90;;;;;;5070952;28;20024;-73
2021/01/19 06:47:55;;;;;;;3.22;1.50;;;6.80;99.10;;;;;;5073466;28;20100;-71
2021/01/19 06:50:26;;;;;;;10.52;1.88;;;6.80;99.00;;;;;;5071413;28;20116;-73
2021/01/19 06:53:15;;;;;;;8.18;1.92;;;6.70;98.90;;;;;;5071864;28;20033;-73
2021/01/19 06:55:46;;;;;;;3.83;1.75;;;6.70;99.00;;;;;;5060323;28;20021;-71
2021/01/19 06:58:47;;;;;;;5.20;1.50;;;6.80;99.10;;;;;;5057364;28;20047;-72
2021/01/19 07:01:18;;;;;;;5.70;1.70;;;6.70;99.00;;;;;;5071864;28;20063;-73
2021/01/19 07:03:44;;;;;;;6.82;1.45;;;6.70;99.10;;;;;;5070539;28;20090;-72
2021/01/19 07:06:12;;;;;;;9.82;2.15;;;6.70;99.20;;;;;;5072515;28;20017;-73
2021/01/19 07:09:13;;;;;;;7.70;1.83;;;6.70;99.20;;;;;;5071588;28;20052;-73
2021/01/19 07:11:42;;;;;;;9.35;2.08;;;6.70;99.30;;;;;;5063090;28;20130;-72
2021/01/19 07:14:13;;;;;;;7.97;1.92;;;6.70;99.30;;;;;;5071645;28;20047;-72
2021/01/19 07:17:05;;;;;;;11.32;1.85;;;6.60;99.40;;;;;;5071557;28;20090;-72
2021/01/19 07:19:50;;;;;;;11.57;1.67;;;6.60;99.70;;;;;;5071464;28;20530;-73
2021/01/19 07:22:40;;;;;;;7.18;1.73;;;6.70;99.80;;;;;;5070284;28;20516;-72
2021/01/19 07:25:07;;;;;;;7.18;1.63;;;6.70;99.80;;;;;;5071490;28;20039;-72
2021/01/19 07:27:32;;;;;;;6.18;1.70;;;6.60;99.90;;;;;;5071587;28;20024;-72
2021/01/19 07:29:58;;;;;;;4.63;1.75;;;6.70;99.90;;;;;;5072978;28;20055;-72
2021/01/19 07:32:27;;;;;;;9.27;2.10;;;6.60;99.90;;;;;;5071334;28;20055;-72
2021/01/19 07:34:54;;;;;;;4.90;1.85;;;6.60;99.90;;;;;;5070193;28;20029;-73
2021/01/19 07:37:30;;;;;;;5.03;1.10;;;6.60;99.90;;;;;;5071313;28;20040;-72
2021/01/19 07:39:56;;;;;;;6.75;1.73;;;6.60;99.90;;;;;;5066977;28;20399;-71
2021/01/19 07:42:23;;;;;;;6.25;1.80;;;6.50;99.90;;;;;;5052005;28;20117;-72
2021/01/19 07:44:57;;;;;;;5.13;2.00;;;6.50;99.90;;;;;;5051364;28;20036;-73
2021/01/19 07:47:38;;;;;;;5.78;1.77;;;6.50;99.90;;;;;;5051305;28;20333;-72
2021/01/19 07:50:06;;;;;;;8.40;2.08;;;6.40;99.90;;;;;;5050941;28;20037;-73
2021/01/19 07:52:37;;;;;;;;;;;6.50;99.90;;;;;;5051888;28;20112;-71
2021/01/19 07:55:23;;;;;;;5.93;1.48;;;6.40;99.90;;;;;;5051381;28;19909;-73
2021/01/19 07:57:53;;;;;;;7.18;1.80;;;6.40;99.90;;;;;;5051177;28;20056;-72
2021/01/19 08:00:24;;;;;;;7.43;1.65;;;6.50;99.90;;;;;;5052912;28;20358;-69
2021/01/19 08:03:01;;;;;;;5.18;1.75;;;6.40;99.90;;;;;;5051037;28;20041;-70
2021/01/19 08:05:27;;;;;;;3.87;1.50;;;6.40;99.90;;;;;;5049955;28;20473;-70
2021/01/19 08:07:55;;;;;;;6.20;2.17;;;6.40;99.90;;;;;;5050751;28;20597;-71
2021/01/19 08:10:30;;;;;;;4.20;1.53;;;6.40;99.90;;;;;;5055183;28;20044;-71
2021/01/19 08:13:00;;;;;;;13.70;2.00;;;6.40;99.90;;;;;;5053881;28;20067;-71
2021/01/19 08:15:33;;;;;;;4.82;1.35;;;6.50;99.90;;;;;;5054900;28;20021;-69
2021/01/19 08:18:04;;;;;;;7.63;2.13;;;6.40;99.90;;;;;;5056810;28;20406;-71
2021/01/19 08:20:32;;;;;;;5.97;1.58;;;6.50;99.90;;;;;;5072068;28;20128;-70
2021/01/19 08:23:13;;;;;;;13.60;1.88;;;6.50;99.90;;;;;;5073447;28;20025;-71
2021/01/19 08:25:40;;;;;;;9.85;1.77;;;6.40;99.90;;;;;;5073504;28;20089;-70
2021/01/19 08:28:07;;;;;;;8.68;1.95;;;6.40;99.90;;;;;;5074793;28;20029;-69
2021/01/19 08:30:33;;;;;;;9.45;2.00;;;6.40;99.90;;;;;;5074499;28;20457;-70
2021/01/19 08:33:00;;;;;;;8.23;2.35;;;6.40;99.90;;;;;;5076330;28;20099;-70
2021/01/19 08:35:28;;;;;;;7.68;1.95;;;6.40;99.90;;;;;;5058119;28;20040;-69
2021/01/19 08:37:56;;;;;;;7.95;2.10;;;6.50;99.90;;;;;;5066607;28;20037;-70
2021/01/19 08:40:25;;;;;;;;;;;6.50;99.90;;;;;;5075177;28;20111;-68
2021/01/19 08:42:52;;;;;;;25.35;2.50;;;6.40;99.90;;;;;;5074173;28;19908;-71
2021/01/19 08:45:40;;;;;;;10.07;2.60;;;6.40;99.90;;;;;;5075831;28;20103;-71
2021/01/19 08:48:07;;;;;;;;;;;6.40;99.90;;;;;;5075262;28;20458;-70
2021/01/19 08:50:36;;;;;;;3.97;1.85;;;6.40;99.90;;;;;;5073370;28;19908;-69
2021/01/19 08:53:09;;;;;;;10.88;2.00;;;6.40;99.90;;;;;;5072802;28;20028;-69
2021/01/19 08:55:35;;;;;;;11.82;2.78;;;6.40;99.90;;;;;;5074016;28;20543;-68
2021/01/19 08:58:00;;;;;;;7.15;1.92;;;6.40;99.90;;;;;;5073065;28;20130;-71
2021/01/19 09:00:37;;;;;;;11.75;1.83;;;6.40;99.90;;;;;;5074049;28;20450;-69
2021/01/19 09:03:10;;;;;;;5.75;1.77;;;6.50;99.90;;;;;;5075504;28;20809;-70
2021/01/19 09:05:36;;;;;;;8.35;2.72;;;6.40;99.90;;;;;;5074145;28;20040;-70
2021/01/19 09:08:15;;;;;;;9.43;1.90;;;6.50;99.90;;;;;;5073815;28;20029;-69
2021/01/19 09:10:41;;;;;;;5.43;1.67;;;6.50;99.90;;;;;;5068862;28;20458;-70
2021/01/19 09:13:07;;;;;;;3.67;1.77;;;6.50;99.90;;;;;;5074137;28;20116;-70
2021/01/19 09:15:43;;;;;;;5.20;1.58;;;6.60;99.90;;;;;;5073995;28;20114;-70
2021/01/19 09:18:11;;;;;;;5.32;1.27;;;6.50;99.90;;;;;;5075481;28;20609;-70
2021/01/19 09:20:37;;;;;;;4.60;1.50;;;6.50;99.90;;;;;;5072091;28;20423;-70
2021/01/19 09:23:07;;;;;;;6.68;1.40;;;6.50;99.90;;;;;;5073576;28;20106;-70
2021/01/19 09:25:33;;;;;;;2.70;1.20;;;6.40;99.90;;;;;;5073700;28;20025;-70
2021/01/19 09:28:04;;;;;;;4.03;1.38;;;6.40;99.90;;;;;;5073715;28;20473;-71
2021/01/19 09:30:34;;;;;;;5.10;1.67;;;6.40;99.90;;;;;;5072515;28;20029;-70
2021/01/19 09:33:11;;;;;;;3.90;1.35;;;6.40;99.90;;;;;;5075104;28;20027;-71
2021/01/19 09:35:39;;;;;;;3.05;0.93;;;6.30;99.90;;;;;;5073415;28;20029;-70
2021/01/19 09:38:11;;;;;;;7.40;1.48;;;6.30;99.90;;;;;;5059650;28;20068;-69
2021/01/19 09:40:37;;;;;;;7.45;1.80;;;6.30;99.90;;;;;;5053318;28;20052;-70
2021/01/19 09:43:07;;;;;;;6.57;1.38;;;6.30;99.90;;;;;;5058609;28;20044;-70
2021/01/19 09:45:36;;;;;;;3.30;1.67;;;6.30;99.90;;;;;;5072863;28;20029;-71
2021/01/19 09:48:02;;;;;;;5.28;1.45;;;6.30;99.90;;;;;;5073494;28;20408;-73
2021/01/19 09:50:28;;;;;;;7.93;2.00;;;6.30;99.90;;;;;;5071808;28;20413;-71
2021/01/19 09:52:54;;;;;;;2.08;1.05;;;6.30;99.90;;;;;;5070773;28;20087;-70
2021/01/19 09:55:20;;;;;;;3.05;1.10;;;6.30;99.90;;;;;;5073049;28;20468;-71
2021/01/19 09:58:00;;;;;;;2.25;0.95;;;6.30;99.90;;;;;;5073114;28;20051;-71
2021/01/19 10:00:31;;;;;;;3.03;1.13;;;6.30;99.90;;;;;;5074510;28;20054;-71
2021/01/19 10:03:07;;;;;;;3.10;1.10;;;6.30;99.90;;;;;;5051701;28;20120;-71
2021/01/19 10:05:33;;;;;;;8.43;1.25;;;6.30;99.90;;;;;;5052558;28;20131;-72
2021/01/19 10:07:59;;;;;;;2.08;1.15;;;6.20;99.90;;;;;;5065399;28;20131;-72
2021/01/19 10:10:32;;;;;;;4.30;1.00;;;6.20;99.90;;;;;;5072922;28;20060;-72
2021/01/19 10:13:02;;;;;;;2.40;1.02;;;6.20;99.90;;;;;;5073327;28;20032;-71
2021/01/19 10:15:28;;;;;;;2.60;1.00;;;6.20;99.90;;;;;;5072015;28;20028;-72
2021/01/19 10:18:01;;;;;;;7.72;1.15;;;6.20;99.90;;;;;;5073463;28;20029;-72
2021/01/19 10:20:37;;;;;;;4.05;1.10;;;6.10;99.90;;;;;;5072636;28;20115;-72
2021/01/19 10:23:04;;;;;;;3.85;1.00;;;6.20;99.90;;;;;;5070762;28;20110;-70
2021/01/19 10:25:32;;;;;;;1.53;0.93;;;6.10;99.90;;;;;;5072866;28;20028;-73
2021/01/19 10:27:59;;;;;;;;;;;6.10;99.90;;;;;;5071561;28;20039;-70
2021/01/19 10:30:33;;;;;;;4.68;1.60;;;6.10;99.90;;;;;;5073499;28;19913;-73
2021/01/19 10:32:59;;;;;;;7.70;3.40;;;6.10;99.90;;;;;;5071363;28;20382;-72
2021/01/19 10:35:25;;;;;;;2.22;1.15;;;6.20;99.90;;;;;;5071369;28;20119;-72
2021/01/19 10:37:53;;;;;;;3.17;0.95;;;6.20;99.90;;;;;;5072183;28;20044;-72
2021/01/19 10:40:19;;;;;;;1.63;0.90;;;6.20;99.90;;;;;;5072162;28;20049;-72
2021/01/19 10:42:45;;;;;;;0.95;0.63;;;6.20;99.90;;;;;;5069747;28;20036;-71
2021/01/19 10:45:11;;;;;;;2.05;1.00;;;6.20;99.90;;;;;;5052929;28;20029;-72
2021/01/19 10:47:42;;;;;;;4.15;0.93;;;6.30;99.90;;;;;;5051977;28;20040;-71
2021/01/19 10:50:24;;;;;;;1.45;0.70;;;6.30;99.90;;;;;;5051176;28;20045;-70
2021/01/19 10:53:04;;;;;;;7.32;0.80;;;6.40;99.90;;;;;;5051869;28;20063;-72
2021/01/19 10:55:30;;;;;;;1.67;0.88;;;6.30;99.90;;;;;;5051754;28;20033;-72
2021/01/19 10:57:58;;;;;;;4.55;1.05;;;6.30;99.90;;;;;;5049893;28;20486;-71
2021/01/19 11:00:25;;;;;;;1.77;0.82;;;6.30;99.90;;;;;;5053340;28;20040;-71
2021/01/19 11:02:52;;;;;;;2.53;0.90;;;6.30;99.90;;;;;;5052101;28;20482;-72
2021/01/19 11:05:18;;;;;;;5.07;1.00;;;6.20;99.90;;;;;;5067003;28;20727;-71
2021/01/19 11:07:48;;;;;;;4.07;1.10;;;6.30;99.90;;;;;;5071684;28;20067;-72
2021/01/19 11:10:15;;;;;;;4.47;2.55;;;6.20;99.90;;;;;;5071758;28;20098;-71
2021/01/19 11:12:42;;;;;;;4.93;2.50;;;6.20;99.90;;;;;;5071538;28;20104;-73
2021/01/19 11:15:09;;;;;;;2.53;0.60;;;6.30;99.90;;;;;;5072311;28;20020;-71
2021/01/19 11:17:36;;;;;;;3.95;0.73;;;6.30;99.90;;;;;;5070619;28;20037;-71
2021/01/19 11:20:07;;;;;;;6.78;1.00;;;6.30;99.90;;;;;;5071733;28;20043;-72
2021/01/19 11:22:34;;;;;;;2.30;0.65;;;6.30;99.90;;;;;;5070164;28;20354;-71
2021/01/19 11:25:00;;;;;;;1.60;0.60;;;6.20;99.90;;;;;;5071428;28;20028;-72
2021/01/19 11:27:26;;;;;;;0.70;0.65;;;6.30;99.90;;;;;;5073246;28;20028;-70
2021/01/19 11:29:52;;;;;;;1.02;0.60;;;6.30;99.90;;;;;;5071587;28;20033;-72
2021/01/19 11:32:18;;;;;;;0.98;0.50;;;6.30;99.90;;;;;;5071559;28;20040;-71
2021/01/19 11:34:44;;;;;;;2.58;0.60;;;6.20;99.90;;;;;;5071429;28;20040;-72
2021/01/19 11:37:09;;;;;;;1.00;0.70;;;6.20;99.90;;;;;;5070588;28;20040;-70
2021/01/19 11:39:35;;;;;;;0.38;0.38;;;6.30;99.90;;;;;;5071208;28;20059;-71
2021/01/19 11:42:01;;;;;;;0.57;0.57;;;6.20;99.90;;;;;;5074132;28;20025;-70
2021/01/19 11:44:26;;;;;;;2.15;1.08;;;6.30;99.90;;;;;;5074613;28;20036;-70
2021/01/19 11:46:52;;;;;;;3.45;1.08;;;6.30;99.90;;;;;;5074737;28;20085;-70
2021/01/19 11:49:18;;;;;;;2.00;0.75;;;6.30;99.90;;;;;;5074174;28;20040;-70
2021/01/19 11:51:46;;;;;;;0.43;0.40;;;6.30;99.90;;;;;;5075274;28;20067;-78
2021/01/19 11:54:12;;;;;;;0.80;0.50;;;6.40;99.90;;;;;;5077167;28;20023;-72
2021/01/19 11:56:40;;;;;;;2.50;0.70;;;6.30;99.90;;;;;;5074360;28;20025;-73
2021/01/19 11:59:10;;;;;;;1.77;0.80;;;6.40;99.90;;;;;;5075194;28;20029;-73
2021/01/19 12:01:37;;;;;;;2.05;0.75;;;6.40;99.90;;;;;;5075417;28;20039;-74
2021/01/19 12:04:04;;;;;;;1.80;0.68;;;6.30;99.90;;;;;;5075332;28;20037;-71
2021/01/19 12:06:36;;;;;;;1.58;0.63;;;6.30;99.90;;;;;;5075031;28;20047;-72
2021/01/19 12:09:07;;;;;;;1.23;0.70;;;6.30;99.90;;;;;;5076858;28;20016;-73
2021/01/19 12:11:41;;;;;;;1.45;0.60;;;6.30;99.90;;;;;;5074964;28;20028;-72
2021/01/19 12:14:07;;;;;;;1.10;0.40;;;6.30;99.90;;;;;;5074704;28;20052;-71
2021/01/19 12:16:36;;;;;;;0.40;0.40;;;6.40;99.90;;;;;;5073645;28;20114;-73
2021/01/19 12:19:04;;;;;;;2.85;0.60;;;6.30;99.90;;;;;;5073728;28;20021;-73
2021/01/19 12:21:29;;;;;;;1.80;0.75;;;6.40;99.90;;;;;;5074922;28;20073;-73
2021/01/19 12:23:55;;;;;;;1.10;0.70;;;6.30;99.90;;;;;;5076455;28;20060;-73
2021/01/19 12:26:24;;;;;;;1.73;0.70;;;6.30;99.90;;;;;;5074107;28;20033;-74
2021/01/19 12:28:50;;;;;;;1.77;0.70;;;6.30;99.90;;;;;;5074113;28;20059;-75
2021/01/19 12:31:16;;;;;;;0.52;0.40;;;6.40;99.90;;;;;;5073321;28;20481;-73
2021/01/19 12:33:43;;;;;;;1.30;0.63;;;6.40;99.90;;;;;;5074496;28;20035;-74
2021/01/19 12:36:09;;;;;;;0.63;0.50;;;6.40;99.90;;;;;;5075088;28;20020;-74
2021/01/19 12:38:36;;;;;;;0.90;0.60;;;6.40;99.90;;;;;;5074617;28;20353;-73
2021/01/19 12:41:01;;;;;;;3.65;1.05;;;6.40;99.90;;;;;;5061575;28;20044;-73
2021/01/19 12:43:27;;;;;;;1.65;0.47;;;6.50;99.90;;;;;;5053363;28;20053;-73
2021/01/19 12:45:52;;;;;;;7.28;1.13;;;6.40;99.90;;;;;;5054506;28;20037;-74
2021/01/19 12:48:18;;;;;;;7.05;0.95;;;6.40;99.90;;;;;;5055257;28;20028;-74
2021/01/19 12:50:45;;;;;;;6.95;1.08;;;6.40;99.90;;;;;;5072756;28;20036;-73
2021/01/19 12:53:11;;;;;;;5.43;0.85;;;6.50;99.90;;;;;;5074097;28;20109;-73
2021/01/19 12:55:37;;;;;;;2.30;0.88;;;6.50;99.90;;;;;;5072708;28;20119;-73
2021/01/19 12:58:03;;;;;;;4.72;1.00;;;6.60;99.90;;;;;;5072806;28;20051;-73
2021/01/19 13:00:28;;;;;;;4.28;1.75;;;6.60;99.90;;;;;;5073742;28;20035;-75
2021/01/19 13:02:54;;;;;;;36.45;3.38;;;6.50;99.90;;;;;;5075689;28;20110;-73
2021/01/19 13:05:20;;;;;;;8.82;2.17;;;6.70;99.90;;;;;;5073977;28;20032;-73